createdAt,value
2023-02-18T00:03:26.381Z,61.75
2023-02-18T00:08:29.724Z,76.55
2023-02-18T00:13:34.340Z,67.93
2023-02-18T00:18:37.441Z,73.88
2023-02-18T00:23:42.493Z,71.75
2023-02-18T00:28:49.487Z,62.35
2023-02-18T00:33:52.753Z,78.22
2023-02-18T00:38:57.503Z,67.22
2023-02-18T00:44:02.185Z,66.85
2023-02-18T00:49:05.839Z,62.97
2023-02-18T00:54:08.985Z,66.80
2023-02-18T00:59:13.487Z,65.82
2023-02-18T01:04:16.703Z,65.70
2023-02-18T01:09:19.848Z,65.28
2023-02-18T01:14:24.365Z,63.47
2023-02-18T01:19:27.640Z,60.58
2023-02-18T01:24:30.773Z,67.07
2023-02-18T01:29:35.230Z,65.32
2023-02-18T01:34:38.320Z,69.80
2023-02-18T01:39:41.652Z,70.18
2023-02-18T01:44:47.794Z,91.85
2023-02-18T01:49:53.155Z,84.70
2023-02-18T01:54:57.708Z,76.45
2023-02-18T02:00:07.688Z,81.60
2023-02-18T02:05:18.368Z,74.43
2023-02-18T02:10:21.530Z,80.47
2023-02-18T02:15:33.332Z,83.80
2023-02-18T02:20:55.099Z,94.55
2023-02-18T02:26:15.933Z,93.30
2023-02-18T02:31:39.198Z,96.20
2023-02-18T02:36:46.933Z,88.63
2023-02-18T02:41:53.922Z,98.30
2023-02-18T02:47:02.937Z,82.78
2023-02-18T02:52:12.682Z,103.05
2023-02-18T02:57:30.671Z,104.63
2023-02-18T03:02:49.056Z,99.75
2023-02-18T03:08:01.370Z,69.07
2023-02-18T03:13:09.031Z,87.75
2023-02-18T03:18:16.412Z,108.82
2023-02-18T03:23:24.424Z,104.22
2023-02-18T03:28:28.620Z,84.55
2023-02-18T03:33:34.203Z,73.80
2023-02-18T03:38:40.303Z,63.30
2023-02-18T03:43:49.813Z,57.22
2023-02-18T03:48:53.453Z,50.38
2023-02-18T03:53:58.916Z,51.40
2023-02-18T03:59:02.130Z,46.50
2023-02-18T04:04:05.395Z,45.55
2023-02-18T04:09:09.923Z,49.25
2023-02-18T04:14:14.608Z,49.50
2023-02-18T04:19:17.751Z,52.53
2023-02-18T04:24:22.271Z,47.47
2023-02-18T04:29:25.448Z,49.05
2023-02-18T04:34:28.539Z,43.00
2023-02-18T04:39:33.039Z,36.78
2023-02-18T04:44:36.244Z,33.28
2023-02-18T04:49:39.536Z,28.45
2023-02-18T04:54:43.993Z,23.33
2023-02-18T04:59:47.155Z,22.38
2023-02-18T05:04:50.309Z,21.27
2023-02-18T05:09:54.995Z,18.80
2023-02-18T05:14:58.126Z,18.20
2023-02-18T05:20:01.314Z,19.17
2023-02-18T05:25:06.391Z,17.83
2023-02-18T05:30:09.880Z,16.95
2023-02-18T05:35:14.003Z,18.38
2023-02-18T05:40:18.586Z,17.35
2023-02-18T05:45:21.663Z,14.02
2023-02-18T05:50:25.020Z,14.60
2023-02-18T05:55:29.554Z,12.90
2023-02-18T06:00:32.710Z,15.20
2023-02-18T06:05:36.037Z,12.07
2023-02-18T06:10:42.510Z,9.95
2023-02-18T06:15:45.681Z,11.95
2023-02-18T06:20:49.029Z,11.95
2023-02-18T06:25:53.491Z,9.50
2023-02-18T06:30:56.604Z,9.70
2023-02-18T06:36:00.688Z,11.05
2023-02-18T06:41:05.618Z,10.07
2023-02-18T06:46:09.478Z,9.88
2023-02-18T06:51:12.809Z,14.07
2023-02-18T06:56:18.103Z,10.15
2023-02-18T07:01:21.229Z,12.02
2023-02-18T07:06:24.428Z,12.98
2023-02-18T07:11:28.961Z,11.10
2023-02-18T07:16:32.068Z,14.15
2023-02-18T07:21:35.157Z,13.13
2023-02-18T07:26:39.645Z,13.40
2023-02-18T07:31:42.888Z,14.23
2023-02-18T07:36:46.066Z,16.70
2023-02-18T07:41:50.623Z,17.85
2023-02-18T07:46:54.145Z,14.02
2023-02-18T07:51:57.380Z,19.85
2023-02-18T07:57:01.867Z,21.13
2023-02-18T08:02:05.509Z,20.48
2023-02-18T08:07:08.905Z,21.30
2023-02-18T08:12:13.856Z,14.38
2023-02-18T08:17:17.924Z,19.17
2023-02-18T08:22:21.150Z,17.50
2023-02-18T08:27:26.470Z,24.33
2023-02-18T08:32:30.008Z,29.00
2023-02-18T08:37:53.740Z,25.90
2023-02-18T08:42:58.007Z,26.48
2023-02-18T08:48:18.703Z,29.60
2023-02-18T08:53:23.780Z,30.67
2023-02-18T08:58:28.424Z,22.10
2023-02-18T09:03:31.541Z,27.60
2023-02-18T09:08:35.068Z,21.08
2023-02-18T09:13:40.041Z,28.27
2023-02-18T09:18:43.522Z,25.85
2023-02-18T09:23:46.914Z,17.42
2023-02-18T09:28:51.854Z,20.35
2023-02-18T09:33:56.054Z,28.40
2023-02-18T09:38:59.907Z,20.50
2023-02-18T09:44:06.486Z,12.38
2023-02-18T09:49:15.766Z,21.35
2023-02-18T09:54:19.704Z,15.77
2023-02-18T09:59:26.097Z,24.23
2023-02-18T10:04:32.216Z,17.30
2023-02-18T10:09:36.272Z,20.13
2023-02-18T10:14:40.799Z,15.55
2023-02-18T10:19:45.273Z,18.35
2023-02-18T10:24:49.824Z,23.73
2023-02-18T10:29:55.664Z,13.65
2023-02-18T10:35:01.496Z,14.43
2023-02-18T10:40:08.264Z,20.85
2023-02-18T10:45:19.332Z,16.13
2023-02-18T10:55:36.278Z,19.48
2023-02-18T11:00:41.277Z,19.65
2023-02-18T11:05:45.321Z,16.42
2023-02-18T11:10:50.143Z,25.83
2023-02-18T11:16:00.532Z,11.77
2023-02-18T11:21:05.253Z,15.07
2023-02-18T11:26:13.385Z,19.40
2023-02-18T11:31:23.560Z,19.55
2023-02-18T11:36:30.423Z,13.32
2023-02-18T11:41:36.630Z,15.27
2023-02-18T11:46:56.946Z,18.13
2023-02-18T11:52:15.424Z,8.90
2023-02-18T11:57:19.490Z,19.75
2023-02-18T12:02:28.867Z,30.40
2023-02-18T12:07:36.614Z,24.50
2023-02-18T12:12:44.934Z,21.80
2023-02-18T12:18:00.899Z,22.63
2023-02-18T12:23:07.936Z,16.55
2023-02-18T12:28:20.081Z,17.90
2023-02-18T12:33:29.356Z,21.60
2023-02-18T12:38:43.858Z,18.88
2023-02-18T12:43:53.096Z,16.30
2023-02-18T12:49:07.398Z,24.02
2023-02-18T12:54:21.914Z,21.38
2023-02-18T12:59:36.338Z,22.75
2023-02-18T13:04:46.109Z,28.15
2023-02-18T13:09:57.736Z,16.52
2023-02-18T13:15:02.983Z,23.95
2023-02-18T13:20:14.588Z,19.42
2023-02-18T13:25:18.360Z,23.38
2023-02-18T13:30:25.321Z,18.50
2023-02-18T13:35:32.754Z,16.02
2023-02-18T13:40:36.376Z,22.38
2023-02-18T13:45:40.844Z,20.95
2023-02-18T13:50:45.783Z,24.90
2023-02-18T13:55:53.003Z,20.02
2023-02-18T14:00:58.064Z,15.55
2023-02-18T14:06:03.111Z,29.92
2023-02-18T14:11:27.722Z,23.55
2023-02-18T14:16:57.657Z,24.08
2023-02-18T14:22:16.751Z,23.73
2023-02-18T14:27:25.464Z,23.65
2023-02-18T14:32:28.999Z,22.23
2023-02-18T14:37:50.150Z,25.10
2023-02-18T14:48:23.118Z,24.77
2023-02-18T14:53:27.149Z,23.05
2023-02-18T14:58:32.646Z,18.13
2023-02-18T15:03:42.055Z,21.00
2023-02-18T15:08:45.450Z,24.33
2023-02-18T15:13:48.761Z,20.60
2023-02-18T15:18:55.091Z,25.17
2023-02-18T15:24:07.120Z,21.50
2023-02-18T15:29:16.194Z,16.83
2023-02-18T15:34:28.243Z,24.58
2023-02-18T15:39:32.653Z,16.33
2023-02-18T15:44:36.836Z,19.45
2023-02-18T15:49:41.686Z,19.75
2023-02-18T15:54:45.121Z,27.10
2023-02-18T15:59:54.924Z,21.77
2023-02-18T16:05:03.288Z,23.35
2023-02-18T16:10:16.905Z,17.98
2023-02-18T16:15:24.643Z,31.23
2023-02-18T16:20:31.424Z,22.13
2023-02-18T16:25:42.486Z,25.73
2023-02-18T16:30:46.488Z,26.23
2023-02-18T16:35:51.266Z,15.60
2023-02-18T16:40:55.167Z,22.92
2023-02-18T16:45:59.208Z,21.35
2023-02-18T16:51:05.295Z,25.27
2023-02-18T16:56:14.027Z,19.63
2023-02-18T17:01:22.148Z,31.23
2023-02-18T17:06:27.245Z,20.88
2023-02-18T17:11:31.288Z,22.77
2023-02-18T17:16:34.544Z,17.50
2023-02-18T17:21:39.172Z,27.27
2023-02-18T17:26:42.487Z,22.50
2023-02-18T17:31:47.549Z,17.48
2023-02-18T17:36:52.390Z,25.48
2023-02-18T17:41:55.708Z,25.75
2023-02-18T17:46:59.587Z,25.10
2023-02-18T17:52:04.458Z,24.88
2023-02-18T17:57:07.929Z,26.13
2023-02-18T18:02:15.756Z,26.05
2023-02-18T18:07:20.310Z,27.67
2023-02-18T18:12:24.363Z,26.35
2023-02-18T18:17:27.681Z,22.40
2023-02-18T18:22:32.556Z,21.02
2023-02-18T18:27:35.773Z,24.02
2023-02-18T18:32:39.325Z,22.98
2023-02-18T18:37:43.993Z,24.95
2023-02-18T18:42:47.641Z,29.35
2023-02-18T18:47:51.393Z,25.10
2023-02-18T18:52:56.032Z,21.10
2023-02-18T18:57:59.538Z,24.35
2023-02-18T19:03:04.125Z,26.83
2023-02-18T19:08:09.429Z,25.48
2023-02-18T19:13:14.099Z,26.33
2023-02-18T19:18:18.394Z,31.52
2023-02-18T19:23:23.024Z,30.73
2023-02-18T19:28:26.844Z,27.52
2023-02-18T19:33:30.200Z,24.13
2023-02-18T19:38:34.947Z,28.33
2023-02-18T19:43:38.461Z,26.17
2023-02-18T19:48:41.607Z,28.33
2023-02-18T19:53:46.989Z,29.35
2023-02-18T19:58:50.380Z,29.15
2023-02-18T20:03:53.842Z,32.80
2023-02-18T20:08:58.551Z,33.83
2023-02-18T20:14:01.837Z,36.65
2023-02-18T20:19:05.101Z,35.47
2023-02-18T20:24:11.352Z,35.00
2023-02-18T20:29:14.474Z,41.63
2023-02-18T20:34:17.818Z,33.47
2023-02-18T20:39:22.800Z,41.20
2023-02-18T20:44:26.326Z,37.67
2023-02-18T20:49:29.631Z,38.38
2023-02-18T20:54:34.673Z,42.13
2023-02-18T20:59:38.083Z,46.25
2023-02-18T21:04:41.273Z,48.90
2023-02-18T21:09:46.265Z,44.22
2023-02-18T21:14:49.535Z,42.55
2023-02-18T21:19:52.944Z,43.28
2023-02-18T21:24:59.382Z,34.00
2023-02-18T21:30:04.367Z,29.63
2023-02-18T21:35:08.127Z,28.52
2023-02-18T21:40:13.125Z,26.90
2023-02-18T21:45:20.297Z,35.08
2023-02-18T21:50:23.554Z,24.95
2023-02-18T21:55:28.380Z,22.70
2023-02-18T22:00:31.744Z,30.15
2023-02-18T22:05:34.967Z,39.58
2023-02-18T22:10:41.042Z,39.83
2023-02-18T22:15:44.420Z,35.42
2023-02-18T22:20:47.824Z,42.45
2023-02-18T22:25:52.638Z,42.30
2023-02-18T22:30:55.913Z,49.63
2023-02-18T22:36:01.280Z,49.13
2023-02-18T22:41:06.611Z,50.17
2023-02-18T22:46:10.787Z,50.42
2023-02-18T22:51:15.342Z,43.22
2023-02-18T22:56:21.151Z,39.63
2023-02-18T23:01:25.399Z,42.20
2023-02-18T23:06:28.794Z,46.15
2023-02-18T23:11:33.375Z,50.05
2023-02-18T23:16:57.198Z,43.25
2023-02-18T23:22:00.468Z,33.00
2023-02-18T23:27:05.088Z,43.03
2023-02-18T23:32:08.330Z,44.25
2023-02-18T23:37:11.746Z,47.60
2023-02-18T23:42:17.045Z,49.75
2023-02-18T23:47:20.193Z,43.03
2023-02-18T23:52:23.311Z,41.22
2023-02-18T23:57:30.928Z,47.35
